Aberdeen, United Kingdom

8:58 AM BST on October 24, 2014 (GMT +0100)
Brigde of Don | Change Station
CLOSE
Current Station
Personal Weather Station
Location: Aberdeen, SCOTLAND
Elevation: 233 ft
Nearby Weather Stations

Elev 233 ft 57.20 °N, 2.13 °W | Updated 7 seconds ago

Clear
Clear
45.3 °F
Feels Like 45 °F
N
3.0
Wind Variable Wind from SW
Gusts 8.0 mph

Today
High -- | Low -- °F
--% Chance of Precip.
Yesterday
High -- | Low -- °F
Precip. -- in
8:01 AM 5:43 PM
New Moon, 0% visible
Pressure 29.71 in
Visibility -9999.0 miles
Clouds
Windchill 45 °F
Dew Point 42 °F
Humidity 88%
Rainfall 0.00 in
Snow Depth Not available.
UV Not available.
Pollen Not available.
Air Quality Not available.
Flu Activity Not available.
METAR EGPD 240750Z 23008KT CAVOK 07/05 Q1006 NOSIG

More Conditions Fewer Conditions

Pressure 29.71 in
Visibility -9999.0 miles
Clouds
Windchill 45 °F
Dew Point 42 °F
Humidity 88%
Rainfall 0.00 in
Snow Depth Not available.
UV Not available.
Pollen Not available.
Air Quality Not available.
Flu Activity Not available.
METAR EGPD 240750Z 23008KT CAVOK 07/05 Q1006 NOSIG

More Conditions Fewer Conditions

10-Day Weather Forecast

Almanac

Astronomy

Oct. 24, 2014 Rise Set
Actual Time 8:01 AM BST 5:43 PM BST
Civil Twilight 7:21 AM BST 6:23 PM BST
Nautical Twilight 6:37 AM BST 7:07 PM BST
Astronomical Twilight 5:52 AM BST 7:52 PM BST
Moon 8:30 AM BST 6:05 PM BST
Length of Visible Light 11h 01m
Length of Day
9h 41m
Tomorrow will be 4m 41s shorter.
New Moon, 0% of the Moon is Illuminated
Today
New Moon
Oct 30
First Quarter
Nov 6
Full
Nov 14
Last Quarter
Nov 22
New

Yesterday's Extremes

Country Highs Country Lows

Community

WunderPhotos

Upload Photos

1,764,512 photos uploaded!

WunderBlogs® & News

Nearby

Snow Depth

Not available.

Earthquake Activity

City Distance Mag. Time & Date
No recent earthquake activity has been reported nearby.
Minimum magnitude displayed is 2.5.

Coastal Water Temperatures

Place Temperature
No Stations Reporting

Nearby Weather Stations